Time;durP1;ratioP1;P1;durP2;ratioP2;P2;SDS_P1;SDS_P2;PMS_P1;PMS_P2;Temp;Humidity;BMP_temperature;BMP_pressure;BME280_temperature;BME280_humidity;BME280_pressure;Samples;Min_cycle;Max_cycle;Signal;HPM_P1;HPM_P2
2021/11/01 12:30:58;;;;;;;23.02;11.90;;;;;;;;;;4931539;23;20058;-93
2021/11/01 15:12:49;;;;;;;20.55;11.48;;;;;;;;;;4881118;29;20450;-81
2021/11/01 15:15:19;;;;;;;21.23;10.97;;;;;;;;;;4879754;29;20025;-81
2021/11/01 15:18:12;;;;;;;24.67;11.35;;;;;;;;;;4863480;29;20040;-81
2021/11/01 15:37:57;;;;;;;25.33;12.88;;;;;;;;;;4880052;29;20037;-81
2021/11/01 16:16:11;;;;;;;22.30;12.30;;;;;;;;;;4842841;29;20133;-85
2021/11/01 16:18:39;;;;;;;21.75;11.75;;;;;;;;;;4842513;29;20040;-77
2021/11/01 16:21:07;;;;;;;23.88;11.77;;;;;;;;;;4843280;29;20022;-79
2021/11/01 16:23:34;;;;;;;24.45;12.13;;;;;;;;;;4842613;29;20022;-78
2021/11/01 16:26:10;;;;;;;22.52;12.98;;;;;;;;;;4841465;29;20037;-77
2021/11/01 16:28:36;;;;;;;24.83;12.50;;;;;;;;;;4843104;29;20027;-78
2021/11/01 16:31:23;;;;;;;29.90;14.30;;;;;;;;;;4841356;29;20091;-79
2021/11/01 16:33:59;;;;;;;23.40;12.30;;;;;;;;;;4843064;29;20074;-79
2021/11/01 16:39:18;;;;;;;23.15;13.10;;;;;;;;;;4842748;29;20049;-77
2021/11/01 16:41:48;;;;;;;24.75;13.90;;;;;;;;;;4871411;29;20057;-82
2021/11/01 16:44:21;;;;;;;25.90;14.23;;;;;;;;;;4881579;29;20081;-78
2021/11/01 16:46:49;;;;;;;24.83;13.00;;;;;;;;;;4881866;29;20025;-82
2021/11/01 16:49:15;;;;;;;25.25;13.35;;;;;;;;;;4883592;29;20060;-79
2021/11/01 16:51:43;;;;;;;23.55;12.32;;;;;;;;;;4882906;29;20029;-77
2021/11/01 16:54:12;;;;;;;22.58;12.88;;;;;;;;;;4883010;29;20045;-78
2021/11/01 16:59:35;;;;;;;27.50;13.38;;;;;;;;;;4882761;29;20070;-79
2021/11/01 17:02:28;;;;;;;22.98;13.43;;;;;;;;;;4882424;29;20549;-78
2021/11/01 17:05:00;;;;;;;23.77;13.30;;;;;;;;;;4882496;29;20505;-78
2021/11/01 17:21:29;;;;;;;24.80;12.23;;;;;;;;;;4882745;29;20124;-79
2021/11/01 17:24:06;;;;;;;22.83;12.90;;;;;;;;;;4880963;29;20113;-79
2021/11/01 17:29:29;;;;;;;25.85;13.23;;;;;;;;;;4882329;29;20033;-80
2021/11/01 17:35:00;;;;;;;27.58;14.18;;;;;;;;;;4882120;29;20033;-77
2021/11/01 17:37:37;;;;;;;26.50;13.57;;;;;;;;;;4882704;29;20025;-77
2021/11/01 18:41:27;;;;;;;22.88;12.00;;;;;;;;;;4880692;29;20056;-80
2021/11/01 18:52:11;;;;;;;25.00;12.43;;;;;;;;;;4862445;29;20519;-81
2021/11/01 18:54:38;;;;;;;23.70;12.70;;;;;;;;;;4861027;29;20026;-80
2021/11/01 18:57:05;;;;;;;31.23;13.60;;;;;;;;;;4860994;29;20038;-78
2021/11/01 18:59:36;;;;;;;22.27;12.00;;;;;;;;;;4862654;29;20021;-78
2021/11/01 19:02:36;;;;;;;20.35;12.35;;;;;;;;;;4862621;29;20057;-79
2021/11/01 19:05:09;;;;;;;21.80;12.45;;;;;;;;;;4861986;29;20033;-79
2021/11/01 19:07:48;;;;;;;24.50;12.13;;;;;;;;;;4862420;29;20052;-79
2021/11/01 20:05:30;;;;;;;22.25;11.20;;;;;;;;;;4880063;29;20040;-77
2021/11/01 20:16:04;;;;;;;22.88;11.90;;;;;;;;;;4879690;29;20389;-79
2021/11/01 21:25:27;;;;;;;29.70;15.00;;;;;;;;;;4882722;29;20039;-78
2021/11/01 21:27:54;;;;;;;29.42;15.45;;;;;;;;;;4882329;29;20031;-78
2021/11/01 21:30:21;;;;;;;35.20;15.63;;;;;;;;;;4882182;29;20053;-80
2021/11/01 21:32:47;;;;;;;31.50;16.33;;;;;;;;;;4882146;29;20048;-78
2021/11/01 21:35:16;;;;;;;36.47;16.60;;;;;;;;;;4882612;29;20382;-79
2021/11/01 21:37:44;;;;;;;27.95;16.13;;;;;;;;;;4865288;29;20065;-79
2021/11/01 21:40:12;;;;;;;28.92;14.70;;;;;;;;;;4881859;29;20422;-79
2021/11/01 21:42:42;;;;;;;30.70;14.90;;;;;;;;;;4882487;29;20510;-78
2021/11/01 21:45:09;;;;;;;31.23;15.55;;;;;;;;;;4881982;29;20047;-78
2021/11/01 21:47:36;;;;;;;33.47;15.13;;;;;;;;;;4882539;29;20028;-78
2021/11/01 21:50:05;;;;;;;34.67;16.70;;;;;;;;;;4882370;29;20092;-79
2021/11/01 21:52:35;;;;;;;31.55;16.35;;;;;;;;;;4864998;29;20494;-79
2021/11/01 21:55:01;;;;;;;31.02;15.75;;;;;;;;;;4881708;29;20033;-79
2021/11/01 21:57:39;;;;;;;30.65;15.88;;;;;;;;;;4864938;29;20033;-80
2021/11/01 22:19:41;;;;;;;33.70;16.00;;;;;;;;;;4881708;29;20574;-80
2021/11/01 22:22:27;;;;;;;37.83;17.08;;;;;;;;;;4881100;29;20475;-80
2021/11/01 22:25:02;;;;;;;29.27;15.77;;;;;;;;;;4864990;29;20120;-87
2021/11/01 22:33:10;;;;;;;54.17;19.98;;;;;;;;;;4881326;29;20056;-81
2021/11/01 22:38:45;;;;;;;63.03;24.60;;;;;;;;;;4881222;29;20064;-80
2021/11/01 22:41:40;;;;;;;60.15;24.17;;;;;;;;;;4860771;29;20522;-84
2021/11/01 22:58:07;;;;;;;38.22;17.90;;;;;;;;;;4862346;29;20038;-81
2021/11/01 23:00:44;;;;;;;39.85;17.88;;;;;;;;;;4862567;29;20032;-80
2021/11/01 23:03:30;;;;;;;33.50;18.08;;;;;;;;;;4860974;29;20085;-81
2021/11/01 23:33:30;;;;;;;34.45;14.88;;;;;;;;;;4861659;29;20133;-79
2021/11/01 23:35:57;;;;;;;31.13;15.55;;;;;;;;;;4862403;29;20077;-80
2021/11/01 23:38:25;;;;;;;36.15;15.68;;;;;;;;;;4861692;29;20098;-80
2021/11/01 23:40:51;;;;;;;33.92;15.27;;;;;;;;;;4869436;29;20129;-78
2021/11/01 23:43:18;;;;;;;32.13;15.52;;;;;;;;;;4863568;29;20439;-79
2021/11/01 23:45:47;;;;;;;30.73;16.33;;;;;;;;;;4880062;29;20025;-80
2021/11/01 23:48:16;;;;;;;29.95;16.02;;;;;;;;;;4880130;29;20116;-80
2021/11/01 23:50:45;;;;;;;28.10;15.45;;;;;;;;;;4863353;29;20120;-80
2021/11/01 23:55:57;;;;;;;30.15;15.57;;;;;;;;;;4880242;29;20090;-81
2021/11/01 23:58:25;;;;;;;27.63;15.45;;;;;;;;;;4863187;29;20033;-80
